WMT4DW LIRF-LFPO
Flight info
| Callsign | WMT4DW |
|---|---|
| Flight time | 1h 41m |
| Altitude | 38000 |
| Route | SOVAN DCT AMTEL DCT PUNSA DCT UNKIR DCT DJL |
| Aircraft | A20N/M-SDE2E3FGHIRWXY/LB1 |
Departure
| Time | 2026-05-08 07:18 |
|---|---|
| Airport | Rome–Fiumicino Leonardo da Vinci International Airport (LIRF) |
Arrival
| Time | 2026-05-08 08:59 |
|---|---|
| Airport | Paris-Orly Airport (LFPO) |
| Time | Latitude | Longitude | Altitude | Speed | Heading |
|---|---|---|---|---|---|
| 2026-05-08 06:56 | 41.79668 | 12.25822 | 14 ft | 0 kts | 115° |
| 2026-05-08 07:08 | 41.79673 | 12.25806 | 14 ft | 4 kts | 115° |
| 2026-05-08 07:08 | 41.79682 | 12.25780 | 14 ft | 4 kts | 106° |
| 2026-05-08 07:09 | 41.79681 | 12.25750 | 17 ft | 4 kts | 42° |
| 2026-05-08 07:09 | 41.79678 | 12.25744 | 16 ft | 4 kts | 25° |
| 2026-05-08 07:09 | 41.79703 | 12.25760 | 16 ft | 4 kts | 25° |
| 2026-05-08 07:09 | 41.79727 | 12.25775 | 14 ft | 4 kts | 25° |
| 2026-05-08 07:10 | 41.79752 | 12.25791 | 15 ft | 4 kts | 25° |
| 2026-05-08 07:10 | 41.79776 | 12.25806 | 14 ft | 3 kts | 25° |
| 2026-05-08 07:10 | 41.79780 | 12.25809 | 14 ft | 0 kts | 25° |
| 2026-05-08 07:12 | 41.79800 | 12.25821 | 16 ft | 7 kts | 25° |
| 2026-05-08 07:13 | 41.79833 | 12.25877 | 14 ft | 9 kts | 96° |
| 2026-05-08 07:13 | 41.79802 | 12.25968 | 14 ft | 12 kts | 116° |
| 2026-05-08 07:13 | 41.79764 | 12.26077 | 14 ft | 14 kts | 104° |
| 2026-05-08 07:13 | 41.79815 | 12.26159 | 14 ft | 13 kts | 22° |
| 2026-05-08 07:14 | 41.79906 | 12.26216 | 14 ft | 15 kts | 25° |
| 2026-05-08 07:14 | 41.80008 | 12.26279 | 14 ft | 17 kts | 24° |
| 2026-05-08 07:14 | 41.80122 | 12.26348 | 14 ft | 19 kts | 24° |
| 2026-05-08 07:14 | 41.80246 | 12.26412 | 14 ft | 20 kts | 0° |
| 2026-05-08 07:15 | 41.80368 | 12.26365 | 15 ft | 14 kts | 351° |
| 2026-05-08 07:15 | 41.80439 | 12.26434 | 15 ft | 14 kts | 70° |
| 2026-05-08 07:15 | 41.80474 | 12.26566 | 17 ft | 16 kts | 70° |
| 2026-05-08 07:15 | 41.80515 | 12.26714 | 14 ft | 18 kts | 70° |
| 2026-05-08 07:16 | 41.80561 | 12.26880 | 14 ft | 20 kts | 70° |
| 2026-05-08 07:16 | 41.80611 | 12.27032 | 13 ft | 14 kts | 40° |
| 2026-05-08 07:16 | 41.80711 | 12.27053 | 13 ft | 16 kts | 6° |
| 2026-05-08 07:16 | 41.80820 | 12.27035 | 13 ft | 17 kts | 339° |
| 2026-05-08 07:17 | 41.80927 | 12.26983 | 13 ft | 11 kts | 339° |
| 2026-05-08 07:17 | 41.80954 | 12.26914 | 12 ft | 10 kts | 248° |
| 2026-05-08 07:17 | 41.80886 | 12.26669 | 15 ft | 61 kts | 249° |
| 2026-05-08 07:17 | 41.80660 | 12.25849 | 18 ft | 124 kts | 250° |
| 2026-05-08 07:18 | 41.80302 | 12.24547 | 70 ft | 167 kts | 250° |
| 2026-05-08 07:18 | 41.79922 | 12.23123 | 677 ft | 164 kts | 250° |
| 2026-05-08 07:18 | 41.79529 | 12.21688 | 1410 ft | 159 kts | 246° |
| 2026-05-08 07:18 | 41.79194 | 12.20268 | 2046 ft | 163 kts | 259° |
| 2026-05-08 07:19 | 41.79375 | 12.18760 | 2628 ft | 174 kts | 293° |
| 2026-05-08 07:19 | 41.80125 | 12.17391 | 3262 ft | 192 kts | 307° |
| 2026-05-08 07:19 | 41.81009 | 12.15966 | 3824 ft | 207 kts | 308° |
| 2026-05-08 07:19 | 41.81960 | 12.14403 | 4310 ft | 226 kts | 308° |
| 2026-05-08 07:20 | 41.82950 | 12.12746 | 5138 ft | 229 kts | 308° |
| 2026-05-08 07:20 | 41.84012 | 12.11105 | 5668 ft | 234 kts | 320° |
| 2026-05-08 07:20 | 41.85385 | 12.10019 | 6617 ft | 233 kts | 340° |
| 2026-05-08 07:20 | 41.87000 | 12.09377 | 7136 ft | 252 kts | 345° |
| 2026-05-08 07:21 | 41.88763 | 12.08732 | 7615 ft | 272 kts | 346° |
| 2026-05-08 07:21 | 41.90610 | 12.08055 | 8407 ft | 278 kts | 346° |
| 2026-05-08 07:21 | 41.92484 | 12.07362 | 9312 ft | 281 kts | 346° |
| 2026-05-08 07:21 | 41.94375 | 12.06657 | 10217 ft | 284 kts | 346° |
| 2026-05-08 07:22 | 41.96310 | 12.06037 | 10963 ft | 291 kts | 348° |
| 2026-05-08 07:22 | 41.98356 | 12.05341 | 11289 ft | 315 kts | 346° |
| 2026-05-08 07:22 | 42.00542 | 12.04531 | 11605 ft | 336 kts | 346° |
| 2026-05-08 07:22 | 42.02825 | 12.03683 | 12246 ft | 343 kts | 346° |
| 2026-05-08 07:23 | 42.05151 | 12.02835 | 12978 ft | 349 kts | 347° |
| 2026-05-08 07:23 | 42.07514 | 12.01988 | 13707 ft | 354 kts | 347° |
| 2026-05-08 07:23 | 42.09913 | 12.01135 | 14354 ft | 359 kts | 347° |
| 2026-05-08 07:23 | 42.12342 | 12.00277 | 14976 ft | 364 kts | 347° |
| 2026-05-08 07:24 | 42.14813 | 11.99406 | 15595 ft | 369 kts | 347° |
| 2026-05-08 07:24 | 42.17316 | 11.98522 | 16211 ft | 374 kts | 346° |
| 2026-05-08 07:24 | 42.19850 | 11.97627 | 16770 ft | 379 kts | 346° |
| 2026-05-08 07:24 | 42.22423 | 11.96717 | 17394 ft | 385 kts | 346° |
| 2026-05-08 07:25 | 42.24145 | 11.96108 | 17813 ft | 388 kts | 346° |
| 2026-05-08 07:25 | 42.26771 | 11.95178 | 18388 ft | 393 kts | 345° |
| 2026-05-08 07:25 | 42.32109 | 11.93284 | 19538 ft | 400 kts | 345° |
| 2026-05-08 07:26 | 42.34808 | 11.92325 | 20106 ft | 403 kts | 345° |
| 2026-05-08 07:26 | 42.37530 | 11.91358 | 20658 ft | 406 kts | 345° |
| 2026-05-08 07:26 | 42.40279 | 11.90379 | 21211 ft | 410 kts | 344° |
| 2026-05-08 07:26 | 42.43040 | 11.89396 | 21851 ft | 411 kts | 344° |
| 2026-05-08 07:27 | 42.45813 | 11.88408 | 22388 ft | 415 kts | 344° |
| 2026-05-08 07:27 | 42.48615 | 11.87408 | 22903 ft | 418 kts | 344° |
| 2026-05-08 07:27 | 42.51440 | 11.86399 | 23434 ft | 422 kts | 344° |
| 2026-05-08 07:27 | 42.54288 | 11.85381 | 23890 ft | 425 kts | 343° |
| 2026-05-08 07:28 | 42.57151 | 11.84357 | 24344 ft | 427 kts | 343° |
| 2026-05-08 07:28 | 42.60037 | 11.83323 | 24778 ft | 430 kts | 343° |
| 2026-05-08 07:28 | 42.62933 | 11.82285 | 25253 ft | 431 kts | 343° |
| 2026-05-08 07:28 | 42.65829 | 11.81247 | 25805 ft | 431 kts | 343° |
| 2026-05-08 07:29 | 42.68752 | 11.80197 | 26150 ft | 436 kts | 343° |
| 2026-05-08 07:29 | 42.71696 | 11.79137 | 26530 ft | 439 kts | 343° |
| 2026-05-08 07:29 | 42.74654 | 11.78072 | 26921 ft | 442 kts | 343° |
| 2026-05-08 07:29 | 42.77642 | 11.76995 | 27297 ft | 445 kts | 343° |
| 2026-05-08 07:30 | 42.80641 | 11.75914 | 27663 ft | 448 kts | 343° |
| 2026-05-08 07:30 | 42.83664 | 11.74823 | 28015 ft | 451 kts | 343° |
| 2026-05-08 07:30 | 42.86708 | 11.73723 | 28376 ft | 453 kts | 343° |
| 2026-05-08 07:30 | 42.89767 | 11.72617 | 28697 ft | 456 kts | 343° |
| 2026-05-08 07:31 | 42.92838 | 11.71505 | 29036 ft | 459 kts | 343° |
| 2026-05-08 07:31 | 42.95931 | 11.70383 | 29346 ft | 461 kts | 343° |
| 2026-05-08 07:31 | 42.99044 | 11.69254 | 29643 ft | 464 kts | 343° |
| 2026-05-08 07:31 | 43.02133 | 11.68132 | 29954 ft | 467 kts | 343° |
| 2026-05-08 07:32 | 43.05316 | 11.66975 | 30250 ft | 469 kts | 342° |
| 2026-05-08 07:32 | 43.08482 | 11.65824 | 30516 ft | 472 kts | 342° |
| 2026-05-08 07:32 | 43.11619 | 11.64680 | 30791 ft | 474 kts | 342° |
| 2026-05-08 07:32 | 43.14813 | 11.63515 | 31078 ft | 476 kts | 342° |
| 2026-05-08 07:33 | 43.18011 | 11.62319 | 31423 ft | 475 kts | 339° |
| 2026-05-08 07:33 | 43.21068 | 11.60664 | 31774 ft | 471 kts | 330° |
| 2026-05-08 07:33 | 43.23888 | 11.58435 | 32116 ft | 466 kts | 321° |
| 2026-05-08 07:33 | 43.26424 | 11.55719 | 32519 ft | 460 kts | 314° |
| 2026-05-08 07:34 | 43.28841 | 11.52859 | 32900 ft | 459 kts | 315° |
| 2026-05-08 07:34 | 43.31268 | 11.50012 | 33254 ft | 459 kts | 315° |
| 2026-05-08 07:34 | 43.33693 | 11.47171 | 33598 ft | 458 kts | 314° |
| 2026-05-08 07:34 | 43.36113 | 11.44330 | 33945 ft | 457 kts | 314° |
| 2026-05-08 07:35 | 43.38527 | 11.41490 | 34237 ft | 456 kts | 314° |
| 2026-05-08 07:35 | 43.40928 | 11.38660 | 34540 ft | 455 kts | 314° |
| 2026-05-08 07:35 | 43.43326 | 11.35827 | 34812 ft | 454 kts | 314° |
| 2026-05-08 07:35 | 43.45718 | 11.32999 | 35082 ft | 453 kts | 314° |
| 2026-05-08 07:36 | 43.48077 | 11.30204 | 35360 ft | 452 kts | 314° |
| 2026-05-08 07:36 | 43.50439 | 11.27403 | 35540 ft | 453 kts | 314° |
| 2026-05-08 07:36 | 43.52823 | 11.24572 | 35761 ft | 452 kts | 314° |
| 2026-05-08 07:36 | 43.55200 | 11.21746 | 36023 ft | 451 kts | 314° |
| 2026-05-08 07:37 | 43.57548 | 11.18953 | 36275 ft | 450 kts | 314° |
| 2026-05-08 07:37 | 43.59889 | 11.16164 | 36501 ft | 448 kts | 314° |
| 2026-05-08 07:37 | 43.62248 | 11.13352 | 36733 ft | 447 kts | 314° |
| 2026-05-08 07:37 | 43.64595 | 11.10551 | 36972 ft | 446 kts | 314° |
| 2026-05-08 07:38 | 43.66944 | 11.07744 | 37206 ft | 445 kts | 314° |
| 2026-05-08 07:38 | 43.69283 | 11.04946 | 37454 ft | 444 kts | 314° |
| 2026-05-08 07:38 | 43.71615 | 11.02154 | 37618 ft | 444 kts | 314° |
| 2026-05-08 07:38 | 43.73949 | 10.99356 | 37810 ft | 444 kts | 314° |
| 2026-05-08 07:39 | 43.76279 | 10.96561 | 37960 ft | 443 kts | 314° |
| 2026-05-08 07:39 | 43.80918 | 10.90986 | 37982 ft | 441 kts | 314° |
| 2026-05-08 07:40 | 43.85548 | 10.85410 | 37989 ft | 441 kts | 314° |
| 2026-05-08 07:40 | 43.90180 | 10.79821 | 38000 ft | 441 kts | 314° |
| 2026-05-08 07:41 | 43.94803 | 10.74230 | 38004 ft | 442 kts | 314° |
| 2026-05-08 07:41 | 43.99437 | 10.68615 | 38017 ft | 442 kts | 314° |
| 2026-05-08 07:42 | 44.04034 | 10.63031 | 38024 ft | 443 kts | 314° |
| 2026-05-08 07:42 | 44.08671 | 10.57387 | 38039 ft | 443 kts | 314° |
| 2026-05-08 07:43 | 44.13291 | 10.51754 | 38057 ft | 440 kts | 314° |
| 2026-05-08 07:43 | 44.17892 | 10.46129 | 38039 ft | 440 kts | 314° |
| 2026-05-08 07:44 | 44.22489 | 10.40498 | 38041 ft | 440 kts | 314° |
| 2026-05-08 07:44 | 44.27083 | 10.34862 | 38041 ft | 440 kts | 314° |
| 2026-05-08 07:45 | 44.31681 | 10.29219 | 38049 ft | 440 kts | 314° |
| 2026-05-08 07:45 | 44.36268 | 10.23566 | 38043 ft | 440 kts | 314° |
| 2026-05-08 07:46 | 44.40859 | 10.17891 | 38057 ft | 440 kts | 314° |
| 2026-05-08 07:46 | 44.45443 | 10.12211 | 38052 ft | 440 kts | 314° |
| 2026-05-08 07:47 | 44.50029 | 10.06518 | 38050 ft | 440 kts | 314° |
| 2026-05-08 07:47 | 44.54609 | 10.00820 | 38053 ft | 440 kts | 314° |
| 2026-05-08 07:48 | 44.59183 | 9.95117 | 38051 ft | 440 kts | 314° |
| 2026-05-08 07:48 | 44.63755 | 9.89404 | 38049 ft | 440 kts | 314° |
| 2026-05-08 07:49 | 44.68309 | 9.83678 | 38043 ft | 439 kts | 312° |
| 2026-05-08 07:49 | 44.72840 | 9.77928 | 38058 ft | 438 kts | 313° |
| 2026-05-08 07:50 | 44.77379 | 9.72208 | 38049 ft | 438 kts | 313° |
| 2026-05-08 07:50 | 44.81895 | 9.66526 | 38048 ft | 438 kts | 313° |
| 2026-05-08 07:51 | 44.86433 | 9.60803 | 38045 ft | 438 kts | 313° |
| 2026-05-08 07:51 | 44.90961 | 9.55078 | 38054 ft | 437 kts | 313° |
| 2026-05-08 07:52 | 44.95299 | 9.49109 | 38037 ft | 432 kts | 304° |
| 2026-05-08 07:52 | 44.98969 | 9.42429 | 38032 ft | 430 kts | 303° |
| 2026-05-08 07:53 | 45.02654 | 9.35748 | 38039 ft | 431 kts | 304° |
| 2026-05-08 07:53 | 45.06399 | 9.29119 | 38040 ft | 432 kts | 304° |
| 2026-05-08 07:54 | 45.10158 | 9.22492 | 38052 ft | 432 kts | 304° |
| 2026-05-08 07:54 | 45.13916 | 9.15842 | 38042 ft | 433 kts | 304° |
| 2026-05-08 07:55 | 45.17677 | 9.09169 | 38055 ft | 433 kts | 304° |
| 2026-05-08 07:55 | 45.21432 | 9.02487 | 38056 ft | 434 kts | 304° |
| 2026-05-08 07:56 | 45.25189 | 8.95790 | 38056 ft | 434 kts | 304° |
| 2026-05-08 07:56 | 45.28945 | 8.89077 | 38065 ft | 435 kts | 304° |
| 2026-05-08 07:57 | 45.32706 | 8.82337 | 38054 ft | 435 kts | 304° |
| 2026-05-08 07:57 | 45.36438 | 8.75630 | 38053 ft | 436 kts | 304° |
| 2026-05-08 07:58 | 45.40191 | 8.68872 | 38057 ft | 436 kts | 304° |
| 2026-05-08 07:58 | 45.43944 | 8.62095 | 38057 ft | 436 kts | 304° |
| 2026-05-08 07:59 | 45.47696 | 8.55304 | 38082 ft | 437 kts | 304° |
| 2026-05-08 07:59 | 45.51444 | 8.48504 | 38091 ft | 436 kts | 304° |
| 2026-05-08 08:00 | 45.55193 | 8.41686 | 38098 ft | 436 kts | 304° |
| 2026-05-08 08:00 | 45.58929 | 8.34873 | 38096 ft | 436 kts | 304° |
| 2026-05-08 08:01 | 45.62670 | 8.28038 | 38103 ft | 436 kts | 304° |
| 2026-05-08 08:01 | 45.66402 | 8.21200 | 38087 ft | 437 kts | 304° |
| 2026-05-08 08:02 | 45.70133 | 8.14348 | 38096 ft | 436 kts | 304° |
| 2026-05-08 08:02 | 45.73851 | 8.07500 | 38090 ft | 436 kts | 304° |
| 2026-05-08 08:03 | 45.77562 | 8.00654 | 38086 ft | 434 kts | 304° |
| 2026-05-08 08:03 | 45.81265 | 7.93803 | 38095 ft | 436 kts | 304° |
| 2026-05-08 08:04 | 45.84971 | 7.86930 | 38103 ft | 435 kts | 304° |
| 2026-05-08 08:04 | 45.88668 | 7.80058 | 38099 ft | 435 kts | 304° |
| 2026-05-08 08:05 | 45.92361 | 7.73173 | 38084 ft | 434 kts | 304° |
| 2026-05-08 08:05 | 45.96048 | 7.66283 | 38104 ft | 436 kts | 304° |
| 2026-05-08 08:06 | 45.99744 | 7.59363 | 38081 ft | 435 kts | 304° |
| 2026-05-08 08:06 | 46.03420 | 7.52466 | 38075 ft | 434 kts | 303° |
| 2026-05-08 08:07 | 46.07101 | 7.45535 | 38080 ft | 437 kts | 303° |
| 2026-05-08 08:07 | 46.10789 | 7.38579 | 38075 ft | 435 kts | 303° |
| 2026-05-08 08:08 | 46.14445 | 7.31664 | 38077 ft | 434 kts | 303° |
| 2026-05-08 08:08 | 46.18100 | 7.24735 | 38076 ft | 434 kts | 303° |
| 2026-05-08 08:09 | 46.21726 | 7.17845 | 38076 ft | 434 kts | 304° |
| 2026-05-08 08:09 | 46.25381 | 7.10881 | 38062 ft | 435 kts | 304° |
| 2026-05-08 08:10 | 46.29029 | 7.03912 | 38068 ft | 435 kts | 303° |
| 2026-05-08 08:10 | 46.32684 | 6.96914 | 38068 ft | 436 kts | 303° |
| 2026-05-08 08:11 | 46.36338 | 6.89897 | 38076 ft | 437 kts | 303° |
| 2026-05-08 08:11 | 46.39992 | 6.82863 | 38072 ft | 437 kts | 303° |
| 2026-05-08 08:12 | 46.42063 | 6.78868 | 38063 ft | 437 kts | 303° |
| 2026-05-08 08:12 | 46.45716 | 6.71811 | 38071 ft | 437 kts | 303° |
| 2026-05-08 08:13 | 46.49355 | 6.64761 | 38069 ft | 437 kts | 303° |
| 2026-05-08 08:13 | 46.52991 | 6.57700 | 38067 ft | 437 kts | 303° |
| 2026-05-08 08:14 | 46.56011 | 6.51821 | 38067 ft | 436 kts | 303° |
| 2026-05-08 08:14 | 46.60221 | 6.43603 | 38058 ft | 436 kts | 303° |
| 2026-05-08 08:15 | 46.63839 | 6.36521 | 38055 ft | 436 kts | 303° |
| 2026-05-08 08:15 | 46.66863 | 6.30589 | 38043 ft | 436 kts | 303° |
| 2026-05-08 08:16 | 46.70470 | 6.23497 | 38042 ft | 435 kts | 303° |
| 2026-05-08 08:16 | 46.74046 | 6.16448 | 38027 ft | 435 kts | 303° |
| 2026-05-08 08:17 | 46.77637 | 6.09351 | 38034 ft | 435 kts | 303° |
| 2026-05-08 08:17 | 46.81228 | 6.02234 | 38031 ft | 435 kts | 303° |
| 2026-05-08 08:18 | 46.84814 | 5.95110 | 38022 ft | 436 kts | 303° |
| 2026-05-08 08:18 | 46.88400 | 5.87969 | 38025 ft | 436 kts | 303° |
| 2026-05-08 08:19 | 46.91984 | 5.80814 | 38030 ft | 436 kts | 303° |
| 2026-05-08 08:19 | 46.95563 | 5.73648 | 38030 ft | 436 kts | 303° |
| 2026-05-08 08:20 | 46.99137 | 5.66474 | 38031 ft | 436 kts | 303° |
| 2026-05-08 08:20 | 47.02713 | 5.59281 | 38043 ft | 437 kts | 303° |
| 2026-05-08 08:21 | 47.06286 | 5.52071 | 38047 ft | 437 kts | 303° |
| 2026-05-08 08:21 | 47.09855 | 5.44852 | 38053 ft | 437 kts | 303° |
| 2026-05-08 08:22 | 47.13425 | 5.37613 | 37847 ft | 438 kts | 303° |
| 2026-05-08 08:22 | 47.15210 | 5.33985 | 37383 ft | 438 kts | 303° |
| 2026-05-08 08:22 | 47.16989 | 5.30365 | 36855 ft | 437 kts | 303° |
| 2026-05-08 08:22 | 47.18742 | 5.26795 | 36367 ft | 436 kts | 303° |
| 2026-05-08 08:23 | 47.20516 | 5.23181 | 35858 ft | 436 kts | 303° |
| 2026-05-08 08:23 | 47.22292 | 5.19558 | 35374 ft | 437 kts | 303° |
| 2026-05-08 08:23 | 47.24072 | 5.15922 | 34893 ft | 439 kts | 303° |
| 2026-05-08 08:23 | 47.25859 | 5.12271 | 34421 ft | 440 kts | 303° |
| 2026-05-08 08:24 | 47.27724 | 5.08700 | 33908 ft | 442 kts | 310° |
| 2026-05-08 08:24 | 47.29838 | 5.05400 | 33174 ft | 443 kts | 311° |
| 2026-05-08 08:24 | 47.31979 | 5.02141 | 32427 ft | 443 kts | 311° |
| 2026-05-08 08:24 | 47.34114 | 4.98892 | 31848 ft | 439 kts | 311° |
| 2026-05-08 08:25 | 47.36225 | 4.95666 | 31293 ft | 435 kts | 311° |
| 2026-05-08 08:25 | 47.38312 | 4.92458 | 30743 ft | 434 kts | 310° |
| 2026-05-08 08:25 | 47.40400 | 4.89236 | 30203 ft | 433 kts | 310° |
| 2026-05-08 08:25 | 47.42475 | 4.86029 | 29583 ft | 430 kts | 310° |
| 2026-05-08 08:26 | 47.44527 | 4.82851 | 28955 ft | 425 kts | 310° |
| 2026-05-08 08:26 | 47.46560 | 4.79699 | 28347 ft | 421 kts | 310° |
| 2026-05-08 08:26 | 47.48568 | 4.76581 | 27747 ft | 417 kts | 310° |
| 2026-05-08 08:26 | 47.50561 | 4.73484 | 27174 ft | 414 kts | 310° |
| 2026-05-08 08:27 | 47.52535 | 4.70414 | 26601 ft | 410 kts | 310° |
| 2026-05-08 08:27 | 47.54492 | 4.67367 | 26039 ft | 407 kts | 310° |
| 2026-05-08 08:27 | 47.56434 | 4.64340 | 25488 ft | 403 kts | 310° |
| 2026-05-08 08:27 | 47.58358 | 4.61339 | 24949 ft | 400 kts | 310° |
| 2026-05-08 08:28 | 47.60267 | 4.58357 | 24421 ft | 397 kts | 310° |
| 2026-05-08 08:28 | 47.62159 | 4.55399 | 23901 ft | 394 kts | 310° |
| 2026-05-08 08:28 | 47.64038 | 4.52457 | 23347 ft | 391 kts | 310° |
| 2026-05-08 08:28 | 47.65901 | 4.49537 | 22750 ft | 389 kts | 310° |
| 2026-05-08 08:29 | 47.67752 | 4.46631 | 22142 ft | 386 kts | 310° |
| 2026-05-08 08:29 | 47.69583 | 4.43756 | 21718 ft | 380 kts | 310° |
| 2026-05-08 08:29 | 47.71385 | 4.40924 | 21323 ft | 376 kts | 310° |
| 2026-05-08 08:29 | 47.73179 | 4.38098 | 20941 ft | 376 kts | 310° |
| 2026-05-08 08:30 | 47.74972 | 4.35271 | 20562 ft | 375 kts | 310° |
| 2026-05-08 08:30 | 47.76756 | 4.32456 | 20184 ft | 373 kts | 310° |
| 2026-05-08 08:30 | 47.80285 | 4.26882 | 19536 ft | 368 kts | 310° |
| 2026-05-08 08:31 | 47.82037 | 4.24109 | 19295 ft | 368 kts | 311° |
| 2026-05-08 08:31 | 47.83790 | 4.21332 | 19062 ft | 368 kts | 311° |
| 2026-05-08 08:31 | 47.85538 | 4.18560 | 18821 ft | 367 kts | 310° |
| 2026-05-08 08:31 | 47.87188 | 4.15680 | 18576 ft | 363 kts | 302° |
| 2026-05-08 08:32 | 47.88396 | 4.12416 | 18344 ft | 359 kts | 290° |
| 2026-05-08 08:32 | 47.89109 | 4.08879 | 18137 ft | 354 kts | 279° |
| 2026-05-08 08:32 | 47.89615 | 4.05286 | 18053 ft | 355 kts | 280° |
| 2026-05-08 08:32 | 47.90133 | 4.01738 | 18055 ft | 355 kts | 280° |
| 2026-05-08 08:33 | 47.90662 | 3.98139 | 18054 ft | 355 kts | 280° |
| 2026-05-08 08:33 | 47.91196 | 3.94497 | 18055 ft | 355 kts | 280° |
| 2026-05-08 08:33 | 47.91720 | 3.90899 | 18051 ft | 355 kts | 280° |
| 2026-05-08 08:33 | 47.92235 | 3.87345 | 18054 ft | 355 kts | 280° |
| 2026-05-08 08:34 | 47.92756 | 3.83742 | 18051 ft | 355 kts | 280° |
| 2026-05-08 08:34 | 47.93275 | 3.80139 | 18053 ft | 355 kts | 280° |
| 2026-05-08 08:34 | 47.93791 | 3.76541 | 18053 ft | 355 kts | 280° |
| 2026-05-08 08:34 | 47.94308 | 3.72931 | 17962 ft | 356 kts | 280° |
| 2026-05-08 08:35 | 47.94824 | 3.69321 | 17584 ft | 356 kts | 280° |
| 2026-05-08 08:35 | 47.95337 | 3.65727 | 17171 ft | 351 kts | 280° |
| 2026-05-08 08:35 | 47.95840 | 3.62195 | 16787 ft | 346 kts | 280° |
| 2026-05-08 08:35 | 47.96438 | 3.58701 | 16396 ft | 350 kts | 289° |
| 2026-05-08 08:36 | 47.97574 | 3.55495 | 16013 ft | 351 kts | 304° |
| 2026-05-08 08:36 | 47.99188 | 3.52791 | 15642 ft | 348 kts | 313° |
| 2026-05-08 08:36 | 48.00881 | 3.50242 | 15267 ft | 343 kts | 312° |
| 2026-05-08 08:36 | 48.02541 | 3.47725 | 14898 ft | 338 kts | 312° |
| 2026-05-08 08:37 | 48.04176 | 3.45236 | 14532 ft | 333 kts | 312° |
| 2026-05-08 08:37 | 48.05783 | 3.42780 | 14171 ft | 328 kts | 312° |
| 2026-05-08 08:37 | 48.07368 | 3.40355 | 13825 ft | 324 kts | 312° |
| 2026-05-08 08:37 | 48.08931 | 3.37962 | 13410 ft | 320 kts | 312° |
| 2026-05-08 08:38 | 48.10475 | 3.35595 | 13012 ft | 316 kts | 312° |
| 2026-05-08 08:38 | 48.11999 | 3.33257 | 12619 ft | 312 kts | 312° |
| 2026-05-08 08:38 | 48.13508 | 3.30938 | 12231 ft | 309 kts | 312° |
| 2026-05-08 08:38 | 48.15002 | 3.28643 | 11847 ft | 306 kts | 312° |
| 2026-05-08 08:39 | 48.16482 | 3.26367 | 11468 ft | 303 kts | 312° |
| 2026-05-08 08:39 | 48.17945 | 3.24113 | 11096 ft | 301 kts | 313° |
| 2026-05-08 08:39 | 48.19399 | 3.21873 | 10721 ft | 298 kts | 312° |
| 2026-05-08 08:39 | 48.20835 | 3.19660 | 10356 ft | 295 kts | 313° |
| 2026-05-08 08:40 | 48.22243 | 3.17495 | 10227 ft | 284 kts | 313° |
| 2026-05-08 08:40 | 48.23612 | 3.15392 | 10130 ft | 283 kts | 313° |
| 2026-05-08 08:40 | 48.24988 | 3.13272 | 10050 ft | 283 kts | 313° |
| 2026-05-08 08:40 | 48.26346 | 3.11178 | 10054 ft | 284 kts | 313° |
| 2026-05-08 08:41 | 48.27719 | 3.09060 | 10053 ft | 283 kts | 313° |
| 2026-05-08 08:41 | 48.29112 | 3.06908 | 10057 ft | 283 kts | 312° |
| 2026-05-08 08:41 | 48.30460 | 3.04823 | 10059 ft | 283 kts | 312° |
| 2026-05-08 08:41 | 48.31830 | 3.02701 | 10056 ft | 283 kts | 313° |
| 2026-05-08 08:42 | 48.33204 | 3.00573 | 10054 ft | 284 kts | 313° |
| 2026-05-08 08:42 | 48.34577 | 2.98445 | 10061 ft | 283 kts | 312° |
| 2026-05-08 08:42 | 48.35941 | 2.96329 | 10055 ft | 282 kts | 312° |
| 2026-05-08 08:42 | 48.37310 | 2.94203 | 10056 ft | 284 kts | 313° |
| 2026-05-08 08:43 | 48.38685 | 2.92066 | 10051 ft | 284 kts | 313° |
| 2026-05-08 08:43 | 48.40053 | 2.89939 | 10057 ft | 283 kts | 312° |
| 2026-05-08 08:43 | 48.41420 | 2.87813 | 10057 ft | 282 kts | 312° |
| 2026-05-08 08:43 | 48.42781 | 2.85694 | 10058 ft | 282 kts | 312° |
| 2026-05-08 08:44 | 48.44144 | 2.83568 | 10050 ft | 282 kts | 311° |
| 2026-05-08 08:44 | 48.45243 | 2.81144 | 10058 ft | 281 kts | 292° |
| 2026-05-08 08:44 | 48.45687 | 2.78305 | 10063 ft | 279 kts | 272° |
| 2026-05-08 08:44 | 48.45762 | 2.75382 | 10065 ft | 279 kts | 272° |
| 2026-05-08 08:45 | 48.45838 | 2.72466 | 10061 ft | 279 kts | 272° |
| 2026-05-08 08:45 | 48.45919 | 2.69544 | 10062 ft | 280 kts | 272° |
| 2026-05-08 08:45 | 48.46001 | 2.66673 | 10042 ft | 268 kts | 272° |
| 2026-05-08 08:45 | 48.46073 | 2.63931 | 9949 ft | 256 kts | 272° |
| 2026-05-08 08:46 | 48.46139 | 2.61310 | 9819 ft | 245 kts | 272° |
| 2026-05-08 08:46 | 48.46203 | 2.58760 | 9510 ft | 242 kts | 272° |
| 2026-05-08 08:46 | 48.46264 | 2.56235 | 9192 ft | 240 kts | 272° |
| 2026-05-08 08:46 | 48.46321 | 2.53732 | 8851 ft | 239 kts | 272° |
| 2026-05-08 08:47 | 48.46375 | 2.51228 | 8466 ft | 240 kts | 272° |
| 2026-05-08 08:47 | 48.46428 | 2.48720 | 8106 ft | 240 kts | 272° |
| 2026-05-08 08:47 | 48.46480 | 2.46198 | 7739 ft | 240 kts | 272° |
| 2026-05-08 08:47 | 48.46528 | 2.43696 | 7416 ft | 239 kts | 272° |
| 2026-05-08 08:48 | 48.46576 | 2.41212 | 7213 ft | 236 kts | 272° |
| 2026-05-08 08:48 | 48.46624 | 2.38681 | 7126 ft | 243 kts | 272° |
| 2026-05-08 08:48 | 48.46671 | 2.36159 | 7061 ft | 240 kts | 272° |
| 2026-05-08 08:48 | 48.46718 | 2.33640 | 7056 ft | 241 kts | 272° |
| 2026-05-08 08:49 | 48.46762 | 2.31120 | 7055 ft | 240 kts | 272° |
| 2026-05-08 08:49 | 48.46809 | 2.28600 | 7056 ft | 241 kts | 272° |
| 2026-05-08 08:49 | 48.46853 | 2.26073 | 7055 ft | 241 kts | 272° |
| 2026-05-08 08:49 | 48.46896 | 2.23551 | 7056 ft | 240 kts | 272° |
| 2026-05-08 08:50 | 48.46937 | 2.21040 | 7056 ft | 240 kts | 272° |
| 2026-05-08 08:50 | 48.46979 | 2.18521 | 7055 ft | 241 kts | 272° |
| 2026-05-08 08:50 | 48.47024 | 2.15990 | 7055 ft | 241 kts | 273° |
| 2026-05-08 08:50 | 48.47465 | 2.13586 | 6985 ft | 241 kts | 299° |
| 2026-05-08 08:51 | 48.48405 | 2.11493 | 6736 ft | 242 kts | 310° |
| 2026-05-08 08:51 | 48.49512 | 2.09579 | 6421 ft | 242 kts | 311° |
| 2026-05-08 08:51 | 48.50624 | 2.07673 | 6100 ft | 242 kts | 311° |
| 2026-05-08 08:51 | 48.51732 | 2.05774 | 5809 ft | 241 kts | 312° |
| 2026-05-08 08:52 | 48.52832 | 2.03883 | 5499 ft | 240 kts | 311° |
| 2026-05-08 08:52 | 48.53930 | 2.01998 | 5220 ft | 237 kts | 312° |
| 2026-05-08 08:52 | 48.55190 | 2.00453 | 5133 ft | 237 kts | 330° |
| 2026-05-08 08:52 | 48.56645 | 1.99240 | 4982 ft | 239 kts | 332° |
| 2026-05-08 08:53 | 48.58089 | 1.98052 | 4722 ft | 234 kts | 332° |
| 2026-05-08 08:53 | 48.59590 | 1.97165 | 4442 ft | 232 kts | 358° |
| 2026-05-08 08:53 | 48.61058 | 1.97786 | 4328 ft | 216 kts | 40° |
| 2026-05-08 08:53 | 48.61816 | 1.99591 | 4239 ft | 200 kts | 76° |
| 2026-05-08 08:54 | 48.62102 | 2.01587 | 4133 ft | 189 kts | 79° |
| 2026-05-08 08:54 | 48.62363 | 2.03518 | 4053 ft | 190 kts | 77° |
| 2026-05-08 08:54 | 48.62762 | 2.05415 | 3961 ft | 188 kts | 68° |
| 2026-05-08 08:54 | 48.63319 | 2.07195 | 3880 ft | 188 kts | 63° |
| 2026-05-08 08:55 | 48.63940 | 2.08921 | 3664 ft | 184 kts | 63° |
| 2026-05-08 08:55 | 48.64546 | 2.10633 | 3457 ft | 186 kts | 63° |
| 2026-05-08 08:55 | 48.65153 | 2.12343 | 3222 ft | 183 kts | 63° |
| 2026-05-08 08:55 | 48.65752 | 2.14031 | 3003 ft | 181 kts | 63° |
| 2026-05-08 08:56 | 48.66323 | 2.15643 | 2777 ft | 167 kts | 63° |
| 2026-05-08 08:56 | 48.66852 | 2.17138 | 2551 ft | 156 kts | 63° |
| 2026-05-08 08:56 | 48.67349 | 2.18542 | 2333 ft | 146 kts | 63° |
| 2026-05-08 08:56 | 48.67816 | 2.19859 | 2139 ft | 141 kts | 64° |
| 2026-05-08 08:57 | 48.68281 | 2.21175 | 1934 ft | 140 kts | 63° |
| 2026-05-08 08:57 | 48.68735 | 2.22459 | 1757 ft | 142 kts | 63° |
| 2026-05-08 08:57 | 48.69204 | 2.23788 | 1557 ft | 142 kts | 63° |
| 2026-05-08 08:57 | 48.69671 | 2.25100 | 1370 ft | 141 kts | 63° |
| 2026-05-08 08:58 | 48.70122 | 2.26384 | 1162 ft | 140 kts | 63° |
| 2026-05-08 08:58 | 48.70569 | 2.27677 | 1006 ft | 138 kts | 62° |
| 2026-05-08 08:58 | 48.71031 | 2.28988 | 813 ft | 142 kts | 62° |
| 2026-05-08 08:58 | 48.71499 | 2.30286 | 630 ft | 141 kts | 62° |
| 2026-05-08 08:59 | 48.71953 | 2.31569 | 422 ft | 138 kts | 62° |
| 2026-05-08 08:59 | 48.72411 | 2.32851 | 304 ft | 132 kts | 62° |
| 2026-05-08 08:59 | 48.72766 | 2.33856 | 303 ft | 81 kts | 62° |
| 2026-05-08 08:59 | 48.72939 | 2.34344 | 300 ft | 33 kts | 61° |
| 2026-05-08 09:00 | 48.73003 | 2.34688 | 295 ft | 33 kts | 82° |
| 2026-05-08 09:00 | 48.73035 | 2.34994 | 296 ft | 22 kts | 82° |
| 2026-05-08 09:00 | 48.73034 | 2.35171 | 297 ft | 17 kts | 108° |
| 2026-05-08 09:00 | 48.72981 | 2.35279 | 297 ft | 12 kts | 147° |
| 2026-05-08 09:01 | 48.72907 | 2.35350 | 301 ft | 14 kts | 121° |
| 2026-05-08 09:01 | 48.72910 | 2.35477 | 301 ft | 10 kts | 70° |
| 2026-05-08 09:01 | 48.72942 | 2.35520 | 298 ft | 2 kts | 17° |
| 2026-05-08 09:01 | 48.72954 | 2.35526 | 300 ft | 4 kts | 20° |
| 2026-05-08 09:02 | 48.72960 | 2.35547 | 299 ft | 4 kts | 82° |
| 2026-05-08 09:02 | 48.72950 | 2.35596 | 302 ft | 6 kts | 107° |
| 2026-05-08 09:02 | 48.72937 | 2.35665 | 298 ft | 5 kts | 105° |
| 2026-05-08 09:02 | 48.72934 | 2.35686 | 299 ft | 0 kts | 104° |